Station History

Weather Underground - logo

Station Historical Data
Daily Summary for September 17, 2017 Units:  English    Metric   Both
« Previous Day
Next Day »
Daily Weekly Monthly Yearly Custom
  High: Low: Average:
Temperature: 88.8 °F 59.0 °F 73.5 °F
Dew Point: 60.6 °F 54.1 °F 57.5 °F
Humidity: 88 % 33 % 61 %
Wind Speed: 5.8 mph 0.0 mph 1 mph
Wind Gust: 4.6 mph - -
Wind:- - SW
Pressure: 29.90 in 29.80 in -
Precipitation: 0.00 in    
Historical Graphs
 
 
Tabular Data for September 17, 2017
Time Temperature Dew Point Pressure Wind Wind Speed Wind Gust Humidity Rainfall Rate (Hourly)
00:01 67.2 °F 59.0 °F 29.82 in Calm     75 % 0.00 in
00:06 67.0 °F 58.4 °F 29.82 in Calm     74 % 0.00 in
00:11 66.9 °F 58.0 °F 29.82 in Calm     73 % 0.00 in
00:16 66.9 °F 58.3 °F 29.82 in Calm     74 % 0.00 in
00:21 66.9 °F 58.7 °F 29.82 in Calm     75 % 0.00 in
00:26 66.9 °F 58.3 °F 29.82 in Calm     74 % 0.00 in
00:31 66.8 °F 59.0 °F 29.82 in Calm     76 % 0.00 in
00:36 66.8 °F 59.7 °F 29.82 in Calm     78 % 0.00 in
00:41 66.6 °F 58.8 °F 29.82 in Calm     76 % 0.00 in
00:46 66.3 °F 58.9 °F 29.82 in Calm     77 % 0.00 in
00:51 66.0 °F 59.7 °F 29.82 in Calm     80 % 0.00 in
00:56 65.7 °F 59.7 °F 29.82 in Calm     81 % 0.00 in
01:01 65.7 °F 59.7 °F 29.82 in Calm     81 % 0.00 in
01:11 65.4 °F 58.7 °F 29.82 in Calm     79 % 0.00 in
01:16 65.6 °F 58.9 °F 29.82 in Calm     79 % 0.00 in
01:21 65.8 °F 58.7 °F 29.82 in Calm     78 % 0.00 in
01:26 65.8 °F 58.7 °F 29.82 in Calm     78 % 0.00 in
01:31 65.9 °F 58.8 °F 29.83 in Calm     78 % 0.00 in
01:36 65.8 °F 58.7 °F 29.83 in Calm     78 % 0.00 in
01:41 65.7 °F 59.0 °F 29.83 in Calm     79 % 0.00 in
01:46 65.5 °F 58.8 °F 29.83 in Calm     79 % 0.00 in
01:51 65.2 °F 58.9 °F 29.83 in Calm     80 % 0.00 in
01:56 64.9 °F 58.6 °F 29.82 in Calm     80 % 0.00 in
02:01 64.8 °F 58.1 °F 29.82 in Calm     79 % 0.00 in
02:06 64.8 °F 58.8 °F 29.82 in SE 5.8 mph   81 % 0.00 in
02:12 64.8 °F 58.5 °F 29.82 in Calm     80 % 0.00 in
02:16 64.7 °F 58.7 °F 29.82 in Calm     81 % 0.00 in
02:21 64.5 °F 58.5 °F 29.82 in Calm     81 % 0.00 in
02:26 64.5 °F 58.5 °F 29.82 in Calm     81 % 0.00 in
02:31 64.6 °F 58.3 °F 29.82 in Calm     80 % 0.00 in
02:36 64.7 °F 58.0 °F 29.82 in Calm     79 % 0.00 in
02:41 64.8 °F 58.1 °F 29.82 in Calm     79 % 0.00 in
02:47 64.5 °F 57.8 °F 29.82 in Calm     79 % 0.00 in
02:52 63.9 °F 57.6 °F 29.82 in Calm     80 % 0.00 in
03:02 63.2 °F 57.6 °F 29.82 in Calm     82 % 0.00 in
03:07 62.9 °F 57.3 °F 29.82 in Calm     82 % 0.00 in
03:12 62.5 °F 57.3 °F 29.81 in Calm     83 % 0.00 in
03:17 62.3 °F 57.4 °F 29.82 in Calm     84 % 0.00 in
03:22 62.1 °F 57.2 °F 29.82 in Calm     84 % 0.00 in
03:27 62.0 °F 57.1 °F 29.82 in Calm     84 % 0.00 in
03:32 61.9 °F 57.0 °F 29.82 in Calm     84 % 0.00 in
03:37 61.7 °F 56.8 °F 29.82 in Calm     84 % 0.00 in
03:42 61.6 °F 56.7 °F 29.82 in Calm     84 % 0.00 in
03:47 61.4 °F 56.5 °F 29.82 in Calm     84 % 0.00 in
03:57 61.2 °F 56.3 °F 29.82 in Calm     84 % 0.00 in
04:02 61.1 °F 56.2 °F 29.82 in Calm     84 % 0.00 in
04:07 61.1 °F 56.6 °F 29.82 in Calm     85 % 0.00 in
04:12 61.0 °F 56.5 °F 29.82 in Calm     85 % 0.00 in
04:17 60.9 °F 56.4 °F 29.83 in Calm     85 % 0.00 in
04:22 60.9 °F 56.4 °F 29.83 in Calm     85 % 0.00 in
04:27 60.8 °F 56.3 °F 29.83 in Calm     85 % 0.00 in
04:32 60.6 °F 56.4 °F 29.83 in Calm     86 % 0.00 in
04:37 60.5 °F 56.3 °F 29.83 in Calm     86 % 0.00 in
04:42 60.3 °F 56.1 °F 29.83 in Calm     86 % 0.00 in
04:47 60.3 °F 56.4 °F 29.83 in Calm     87 % 0.00 in
04:52 60.4 °F 56.5 °F 29.83 in Calm     87 % 0.00 in
04:57 60.5 °F 56.3 °F 29.83 in Calm   0.3 mph 86 % 0.00 in
05:07 60.6 °F 56.4 °F 29.83 in Calm     86 % 0.00 in
05:12 60.5 °F 56.3 °F 29.83 in SE 1.2 mph   86 % 0.00 in
05:17 60.4 °F 56.2 °F 29.83 in SE 1.0 mph 1.0 mph 86 % 0.00 in
05:22 60.3 °F 56.1 °F 29.83 in Calm     86 % 0.00 in
05:27 60.3 °F 56.1 °F 29.83 in SE 1.2 mph 1.2 mph 86 % 0.00 in
05:32 60.2 °F 55.7 °F 29.83 in SE 1.2 mph 1.2 mph 85 % 0.00 in
05:37 60.4 °F 55.9 °F 29.83 in SE 1.2 mph 1.2 mph 85 % 0.00 in
05:42 60.7 °F 56.2 °F 29.83 in SE 1.0 mph 1.0 mph 85 % 0.00 in
05:47 60.9 °F 56.4 °F 29.83 in SE 1.2 mph   85 % 0.00 in
05:52 60.9 °F 56.0 °F 29.83 in SE 1.2 mph   84 % 0.00 in
06:02 60.7 °F 55.8 °F 29.84 in SE 1.2 mph   84 % 0.00 in
06:07 60.5 °F 56.0 °F 29.84 in Calm     85 % 0.00 in
06:12 60.3 °F 55.8 °F 29.84 in Calm     85 % 0.00 in
06:17 60.1 °F 55.6 °F 29.84 in Calm     85 % 0.00 in
06:22 59.9 °F 55.7 °F 29.84 in Calm     86 % 0.00 in
06:27 59.8 °F 55.6 °F 29.85 in Calm     86 % 0.00 in
06:32 59.7 °F 55.8 °F 29.85 in Calm     87 % 0.00 in
06:38 59.6 °F 55.7 °F 29.85 in Calm     87 % 0.00 in
06:43 59.4 °F 55.5 °F 29.85 in Calm     87 % 0.00 in
06:48 59.2 °F 55.6 °F 29.85 in Calm     88 % 0.00 in
06:53 59.1 °F 55.5 °F 29.86 in Calm     88 % 0.00 in
06:58 59.0 °F 55.4 °F 29.86 in Calm     88 % 0.00 in
07:03 59.0 °F 55.1 °F 29.86 in Calm     87 % 0.00 in
07:08 59.1 °F 55.2 °F 29.86 in Calm     87 % 0.00 in
07:13 59.1 °F 55.2 °F 29.87 in Calm     87 % 0.00 in
07:18 59.3 °F 55.4 °F 29.87 in Calm     87 % 0.00 in
07:23 59.5 °F 55.3 °F 29.87 in Calm     86 % 0.00 in
07:28 59.8 °F 55.6 °F 29.87 in Calm     86 % 0.00 in
07:33 60.1 °F 55.6 °F 29.88 in Calm     85 % 0.00 in
07:38 60.6 °F 56.1 °F 29.88 in SE 1.0 mph 1.0 mph 85 % 0.00 in
07:43 61.2 °F 56.3 °F 29.88 in Calm     84 % 0.00 in
07:48 61.7 °F 56.8 °F 29.88 in SE 1.2 mph   84 % 0.00 in
07:53 62.1 °F 56.9 °F 29.88 in SE 1.2 mph 1.2 mph 83 % 0.00 in
07:58 62.7 °F 57.1 °F 29.89 in SE 2.3 mph 2.3 mph 82 % 0.00 in
08:03 63.7 °F 57.4 °F 29.89 in ESE 1.2 mph 1.2 mph 80 % 0.00 in
08:08 64.8 °F 58.1 °F 29.89 in SE 1.2 mph 1.2 mph 79 % 0.00 in
08:13 65.5 °F 57.7 °F 29.89 in Calm   0.1 mph 76 % 0.00 in
08:18 66.3 °F 58.1 °F 29.89 in SE 1.2 mph 1.2 mph 75 % 0.00 in
08:23 67.0 °F 57.7 °F 29.89 in SSE 1.2 mph 1.2 mph 72 % 0.00 in
08:33 67.9 °F 57.8 °F 29.89 in East 3.5 mph 3.5 mph 70 % 0.00 in
08:43 68.8 °F 58.2 °F 29.89 in SSE 2.3 mph 2.3 mph 69 % 0.00 in
08:48 69.6 °F 58.6 °F 29.89 in SE 1.2 mph 1.2 mph 68 % 0.00 in
08:53 69.8 °F 57.9 °F 29.90 in East 2.3 mph 2.3 mph 66 % 0.00 in
08:58 69.9 °F 58.4 °F 29.90 in East 2.3 mph 2.3 mph 67 % 0.00 in
09:03 70.7 °F 58.4 °F 29.90 in East 2.3 mph 2.3 mph 65 % 0.00 in
09:08 71.0 °F 58.6 °F 29.90 in SE 1.2 mph 1.2 mph 65 % 0.00 in
09:13 71.6 °F 58.8 °F 29.90 in East 1.2 mph 1.2 mph 64 % 0.00 in
09:18 72.0 °F 58.3 °F 29.90 in West 2.3 mph 2.3 mph 62 % 0.00 in
09:23 72.4 °F 58.2 °F 29.90 in South 3.5 mph 3.5 mph 61 % 0.00 in
09:28 72.9 °F 58.2 °F 29.90 in South 1.2 mph 1.2 mph 60 % 0.00 in
09:33 73.6 °F 59.3 °F 29.90 in South 2.3 mph 2.3 mph 61 % 0.00 in
09:38 74.0 °F 58.8 °F 29.90 in SSE 1.2 mph 1.2 mph 59 % 0.00 in
09:43 74.2 °F 58.9 °F 29.90 in ESE 2.3 mph   59 % 0.00 in
09:48 74.5 °F 58.8 °F 29.90 in ESE 3.5 mph 3.5 mph 58 % 0.00 in
09:53 74.8 °F 59.5 °F 29.90 in ESE 1.2 mph 1.2 mph 59 % 0.00 in
09:58 75.5 °F 59.2 °F 29.90 in SSW 2.3 mph 2.3 mph 57 % 0.00 in
10:03 76.1 °F 59.8 °F 29.90 in South 2.3 mph 2.3 mph 57 % 0.00 in
10:09 76.3 °F 58.9 °F 29.90 in SE 2.3 mph 2.3 mph 55 % 0.00 in
10:14 76.7 °F 59.3 °F 29.90 in South 2.3 mph 2.3 mph 55 % 0.00 in
10:19 77.2 °F 58.2 °F 29.90 in SSE 2.3 mph 2.3 mph 52 % 0.00 in
10:24 77.0 °F 58.6 °F 29.90 in SSW 3.5 mph 3.5 mph 53 % 0.00 in
10:29 77.5 °F 59.5 °F 29.90 in WNW 1.2 mph 1.2 mph 54 % 0.00 in
10:34 78.0 °F 59.5 °F 29.90 in SE 2.3 mph 2.3 mph 53 % 0.00 in
10:39 78.4 °F 58.2 °F 29.90 in NNW 3.5 mph 3.5 mph 50 % 0.00 in
10:44 78.5 °F 58.9 °F 29.90 in NNW 2.3 mph 2.3 mph 51 % 0.00 in
10:49 78.9 °F 59.2 °F 29.90 in East 1.2 mph   51 % 0.00 in
10:54 79.4 °F 58.6 °F 29.90 in SE 3.5 mph 3.5 mph 49 % 0.00 in
10:59 79.3 °F 58.5 °F 29.90 in WNW 2.3 mph 2.3 mph 49 % 0.00 in
11:09 80.3 °F 58.2 °F 29.90 in NW 1.2 mph 1.2 mph 47 % 0.00 in
11:14 80.6 °F 57.9 °F 29.90 in SSW 4.6 mph 4.6 mph 46 % 0.00 in
11:19 80.6 °F 57.9 °F 29.90 in South 3.5 mph 3.5 mph 46 % 0.00 in
11:24 81.0 °F 58.9 °F 29.90 in SSE 1.2 mph 1.2 mph 47 % 0.00 in
11:29 81.5 °F 58.1 °F 29.90 in NNW 2.3 mph 2.3 mph 45 % 0.00 in
11:34 81.6 °F 60.0 °F 29.90 in SSW 1.2 mph   48 % 0.00 in
11:44 82.3 °F 58.8 °F 29.90 in NW 1.2 mph 1.2 mph 45 % 0.00 in
11:49 82.9 °F 58.7 °F 29.90 in ESE 1.2 mph   44 % 0.00 in
11:54 83.3 °F 58.5 °F 29.90 in SE 3.5 mph 3.5 mph 43 % 0.00 in
11:59 83.2 °F 58.4 °F 29.89 in NW 1.2 mph 1.2 mph 43 % 0.00 in
12:04 83.0 °F 58.2 °F 29.89 in NW 3.5 mph 3.5 mph 43 % 0.00 in
12:09 82.9 °F 58.7 °F 29.89 in ESE 1.2 mph 1.2 mph 44 % 0.00 in
12:14 83.4 °F 59.2 °F 29.89 in SE 1.2 mph   44 % 0.00 in
12:19 84.0 °F 59.1 °F 29.89 in WNW 2.3 mph 2.3 mph 43 % 0.00 in
12:29 83.9 °F 59.0 °F 29.89 in WNW 3.5 mph 3.5 mph 43 % 0.00 in
12:34 84.7 °F 58.4 °F 29.89 in SE 2.3 mph 2.3 mph 41 % 0.00 in
12:39 85.1 °F 60.1 °F 29.88 in NW 3.0 mph 3.0 mph 43 % 0.00 in
12:44 84.8 °F 59.2 °F 29.88 in SE 3.0 mph 3.0 mph 42 % 0.00 in
12:49 84.7 °F 58.4 °F 29.88 in NW 2.3 mph 2.3 mph 41 % 0.00 in
12:54 85.0 °F 59.3 °F 29.88 in NNE 1.2 mph 1.4 mph 42 % 0.00 in
12:59 85.8 °F 59.4 °F 29.88 in SE 1.2 mph 1.6 mph 41 % 0.00 in
13:04 86.1 °F 58.2 °F 29.87 in NW 1.2 mph 1.2 mph 39 % 0.00 in
13:10 85.6 °F 59.2 °F 29.87 in NW 1.2 mph 1.2 mph 41 % 0.00 in
13:15 85.7 °F 57.9 °F 29.87 in NNE 1.2 mph 1.2 mph 39 % 0.00 in
13:20 85.8 °F 58.7 °F 29.87 in NNW 3.5 mph 3.5 mph 40 % 0.00 in
13:25 85.8 °F 58.0 °F 29.86 in NW 2.3 mph 2.3 mph 39 % 0.00 in
13:30 85.8 °F 58.7 °F 29.86 in NW 1.2 mph 1.2 mph 40 % 0.00 in
13:35 85.7 °F 57.9 °F 29.86 in ENE 2.3 mph 2.3 mph 39 % 0.00 in
13:40 85.7 °F 57.9 °F 29.86 in NNW 1.2 mph 1.2 mph 39 % 0.00 in
13:45 86.2 °F 58.3 °F 29.86 in WNW 1.2 mph 1.2 mph 39 % 0.00 in
13:50 86.8 °F 58.1 °F 29.86 in NNW 2.3 mph 2.3 mph 38 % 0.00 in
13:55 86.6 °F 58.0 °F 29.86 in NW 3.5 mph 3.5 mph 38 % 0.00 in
14:00 86.3 °F 58.4 °F 29.85 in NNW 1.2 mph 1.2 mph 39 % 0.00 in
14:05 86.6 °F 60.1 °F 29.85 in NW 2.3 mph 2.3 mph 41 % 0.00 in
14:10 86.8 °F 58.1 °F 29.85 in WNW 3.5 mph 3.5 mph 38 % 0.00 in
14:15 87.0 °F 59.0 °F 29.85 in NNW 3.5 mph 3.5 mph 39 % 0.00 in
14:20 87.0 °F 59.0 °F 29.84 in NW 2.3 mph 2.3 mph 39 % 0.00 in
14:25 87.5 °F 58.8 °F 29.84 in NW 1.2 mph 1.2 mph 38 % 0.00 in
14:35 88.4 °F 58.8 °F 29.84 in WNW 2.3 mph 2.3 mph 37 % 0.00 in
14:40 88.6 °F 60.5 °F 29.84 in West 1.2 mph 1.2 mph 39 % 0.00 in
14:45 88.7 °F 59.1 °F 29.84 in NW 1.0 mph 1.0 mph 37 % 0.00 in
14:50 88.4 °F 59.6 °F 29.84 in NW 3.0 mph 3.0 mph 38 % 0.00 in
14:55 88.0 °F 58.5 °F 29.84 in WNW 4.6 mph 4.6 mph 37 % 0.00 in
15:00 88.1 °F 58.6 °F 29.84 in NW 1.2 mph 1.2 mph 37 % 0.00 in
15:05 88.6 °F 60.5 °F 29.83 in West 1.2 mph   39 % 0.00 in
15:10 88.8 °F 59.2 °F 29.83 in NW 2.3 mph 2.3 mph 37 % 0.00 in
15:15 88.7 °F 57.5 °F 29.83 in WSW 2.3 mph 2.3 mph 35 % 0.00 in
15:20 88.7 °F 60.6 °F 29.83 in WNW 2.0 mph 2.0 mph 39 % 0.00 in
15:26 88.5 °F 58.9 °F 29.83 in East 4.0 mph 4.0 mph 37 % 0.00 in
15:31 88.6 °F 57.4 °F 29.82 in NW 4.6 mph 4.6 mph 35 % 0.00 in
15:36 88.4 °F 57.3 °F 29.82 in NW 2.3 mph 2.3 mph 35 % 0.00 in
15:41 88.5 °F 57.4 °F 29.82 in WNW 3.5 mph 3.5 mph 35 % 0.00 in
15:46 88.6 °F 55.8 °F 29.82 in WNW 3.5 mph 3.5 mph 33 % 0.00 in
16:01 88.1 °F 57.8 °F 29.81 in NNW 4.6 mph 4.6 mph 36 % 0.00 in
16:06 88.2 °F 57.1 °F 29.81 in WNW 3.5 mph 3.5 mph 35 % 0.00 in
16:11 88.1 °F 56.2 °F 29.81 in NNW 1.2 mph   34 % 0.00 in
16:16 88.1 °F 57.0 °F 29.81 in WNW 1.2 mph 1.2 mph 35 % 0.00 in
16:21 88.3 °F 58.7 °F 29.81 in WNW 1.2 mph 1.2 mph 37 % 0.00 in
16:26 88.1 °F 56.2 °F 29.81 in NW 4.0 mph 4.0 mph 34 % 0.00 in
16:31 88.2 °F 56.3 °F 29.81 in NW 2.3 mph 2.3 mph 34 % 0.00 in
16:36 88.4 °F 56.5 °F 29.81 in West 1.2 mph 1.2 mph 34 % 0.00 in
16:41 88.4 °F 56.5 °F 29.81 in NW 2.3 mph 2.3 mph 34 % 0.00 in
16:46 88.6 °F 57.4 °F 29.80 in WSW 3.5 mph 3.5 mph 35 % 0.00 in
16:51 88.4 °F 55.6 °F 29.80 in WNW 3.5 mph 3.5 mph 33 % 0.00 in
16:56 88.3 °F 56.4 °F 29.80 in NW 3.5 mph 3.5 mph 34 % 0.00 in
17:01 88.2 °F 56.3 °F 29.80 in WNW 3.5 mph 3.5 mph 34 % 0.00 in
17:06 88.1 °F 57.0 °F 29.80 in NW 3.5 mph 3.5 mph 35 % 0.00 in
17:11 88.0 °F 56.1 °F 29.80 in NW 3.5 mph 3.5 mph 34 % 0.00 in
17:16 88.0 °F 56.9 °F 29.80 in NW 1.2 mph 1.2 mph 35 % 0.00 in
17:21 87.8 °F 56.7 °F 29.80 in NW 1.2 mph 1.2 mph 35 % 0.00 in
17:26 87.5 °F 55.7 °F 29.80 in NW 2.3 mph 2.3 mph 34 % 0.00 in
17:31 87.4 °F 56.4 °F 29.80 in WNW 1.2 mph 1.7 mph 35 % 0.00 in
17:34 87.3 °F 55.5 °F 29.80 in NW 3.0 mph 3.0 mph 34 % 0.00 in
17:39 87.1 °F 55.3 °F 29.80 in WNW 2.0 mph 2.0 mph 34 % 0.00 in
17:44 86.9 °F 56.7 °F 29.80 in NW 3.5 mph 3.5 mph 36 % 0.00 in
17:49 86.7 °F 56.6 °F 29.80 in NW 2.3 mph 2.3 mph 36 % 0.00 in
17:54 86.5 °F 56.4 °F 29.80 in NW 3.5 mph 3.5 mph 36 % 0.00 in
17:59 86.3 °F 56.2 °F 29.80 in NW 2.0 mph 2.0 mph 36 % 0.00 in
18:04 86.1 °F 56.0 °F 29.80 in WNW 2.3 mph 2.3 mph 36 % 0.00 in
18:09 85.9 °F 57.3 °F 29.80 in NW 1.2 mph   38 % 0.00 in
18:19 85.3 °F 57.5 °F 29.80 in Calm     39 % 0.00 in
18:24 85.0 °F 57.3 °F 29.80 in Calm   0.1 mph 39 % 0.00 in
18:29 84.7 °F 57.0 °F 29.80 in Calm     39 % 0.00 in
18:34 84.3 °F 57.3 °F 29.80 in Calm     40 % 0.00 in
18:39 83.9 °F 57.7 °F 29.80 in WNW 1.2 mph   41 % 0.00 in
18:44 83.4 °F 57.2 °F 29.80 in WNW 1.2 mph   41 % 0.00 in
18:49 83.0 °F 57.5 °F 29.80 in Calm     42 % 0.00 in
18:54 82.6 °F 57.8 °F 29.80 in Calm     43 % 0.00 in
19:00 82.0 °F 57.9 °F 29.80 in Calm     44 % 0.00 in
19:05 81.3 °F 57.9 °F 29.80 in Calm     45 % 0.00 in
19:10 80.7 °F 58.6 °F 29.80 in Calm     47 % 0.00 in
19:15 80.1 °F 58.6 °F 29.80 in Calm     48 % 0.00 in
19:20 79.4 °F 57.4 °F 29.80 in Calm     47 % 0.00 in
19:30 78.3 °F 57.0 °F 29.80 in Calm     48 % 0.00 in
19:35 77.9 °F 58.3 °F 29.80 in Calm     51 % 0.00 in
19:40 77.3 °F 58.3 °F 29.80 in Calm     52 % 0.00 in
19:45 76.7 °F 58.3 °F 29.80 in Calm     53 % 0.00 in
19:50 76.2 °F 58.3 °F 29.80 in Calm     54 % 0.00 in
19:55 75.7 °F 58.9 °F 29.81 in Calm     56 % 0.00 in
20:00 75.3 °F 57.5 °F 29.81 in Calm     54 % 0.00 in
20:05 75.4 °F 58.1 °F 29.81 in Calm     55 % 0.00 in
20:10 75.7 °F 56.3 °F 29.81 in Calm     51 % 0.00 in
20:15 75.9 °F 57.5 °F 29.82 in Calm     53 % 0.00 in
20:18 75.8 °F 56.9 °F 29.82 in Calm     52 % 0.00 in
20:20 75.8 °F 57.4 °F 29.82 in Calm     53 % 0.00 in
20:24 75.5 °F 57.7 °F 29.82 in Calm     54 % 0.00 in
20:25 75.3 °F 58.0 °F 29.82 in Calm     55 % 0.00 in
20:26 75.3 °F 57.0 °F 29.82 in Calm     53 % 0.00 in
20:31 75.1 °F 55.7 °F 29.82 in Calm     51 % 0.00 in
20:36 75.0 °F 55.6 °F 29.82 in Calm     51 % 0.00 in
20:41 74.7 °F 56.9 °F 29.82 in Calm     54 % 0.00 in
20:56 73.7 °F 57.0 °F 29.83 in Calm     56 % 0.00 in
21:01 73.5 °F 56.8 °F 29.83 in Calm     56 % 0.00 in
21:06 73.3 °F 58.6 °F 29.83 in Calm     60 % 0.00 in
21:11 73.1 °F 57.4 °F 29.83 in Calm     58 % 0.00 in
21:16 73.0 °F 57.8 °F 29.84 in Calm     59 % 0.00 in
21:21 72.6 °F 57.9 °F 29.84 in Calm     60 % 0.00 in
21:26 72.0 °F 57.8 °F 29.84 in Calm     61 % 0.00 in
21:31 71.8 °F 57.6 °F 29.84 in Calm     61 % 0.00 in
21:36 71.6 °F 57.0 °F 29.84 in WNW 1.2 mph   60 % 0.00 in
21:41 71.4 °F 58.1 °F 29.84 in Calm     63 % 0.00 in
21:46 70.9 °F 57.2 °F 29.84 in Calm     62 % 0.00 in
21:51 70.6 °F 57.4 °F 29.84 in Calm     63 % 0.00 in
21:57 70.3 °F 57.1 °F 29.84 in Calm     63 % 0.00 in
22:01 69.9 °F 56.7 °F 29.84 in Calm     63 % 0.00 in
22:07 69.8 °F 56.2 °F 29.84 in Calm     62 % 0.00 in
22:12 69.7 °F 55.2 °F 29.84 in WNW 1.2 mph   60 % 0.00 in
22:17 69.8 °F 56.6 °F 29.85 in Calm     63 % 0.00 in
22:22 69.7 °F 56.5 °F 29.85 in Calm     63 % 0.00 in
22:27 69.3 °F 56.6 °F 29.85 in Calm     64 % 0.00 in
22:32 68.8 °F 56.1 °F 29.85 in Calm     64 % 0.00 in
22:37 68.3 °F 56.1 °F 29.85 in Calm     65 % 0.00 in
22:42 68.3 °F 56.5 °F 29.85 in Calm     66 % 0.00 in
22:47 67.9 °F 55.7 °F 29.85 in Calm     65 % 0.00 in
22:52 67.6 °F 56.2 °F 29.85 in Calm     67 % 0.00 in
22:57 67.3 °F 56.0 °F 29.85 in Calm     67 % 0.00 in
23:02 67.1 °F 55.8 °F 29.85 in Calm     67 % 0.00 in
23:07 66.9 °F 56.0 °F 29.85 in Calm     68 % 0.00 in
23:12 66.6 °F 55.7 °F 29.85 in Calm     68 % 0.00 in
23:17 66.3 °F 56.2 °F 29.86 in Calm     70 % 0.00 in
23:22 66.1 °F 54.8 °F 29.86 in Calm     67 % 0.00 in
23:27 66.0 °F 55.1 °F 29.86 in Calm     68 % 0.00 in
23:32 65.9 °F 55.0 °F 29.86 in Calm     68 % 0.00 in
23:37 65.7 °F 54.8 °F 29.86 in Calm     68 % 0.00 in
23:42 65.4 °F 55.4 °F 29.86 in Calm     70 % 0.00 in
23:47 65.1 °F 54.3 °F 29.86 in Calm     68 % 0.00 in
23:52 65.1 °F 54.7 °F 29.86 in Calm     69 % 0.00 in
23:57 64.9 °F 54.1 °F 29.86 in Calm     68 % 0.00 in
Park Place, Exeter, Tulare County, California, USA
Compliments of Weather Underground - 2.75 mb